createdAt,value
2022-08-10T00:00:48.409Z,1.60
2022-08-10T00:01:51.188Z,1.90
2022-08-10T00:02:48.396Z,1.90
2022-08-10T00:03:48.386Z,1.60
2022-08-10T00:04:48.362Z,1.80
2022-08-10T00:05:53.142Z,1.60
2022-08-10T00:06:48.341Z,1.70
2022-08-10T00:07:48.355Z,1.90
2022-08-10T00:08:48.327Z,1.50
2022-08-10T00:09:50.791Z,1.70
2022-08-10T00:10:48.305Z,1.70
2022-08-10T00:11:48.303Z,1.70
2022-08-10T00:12:54.726Z,1.40
2022-08-10T00:13:48.284Z,2.00
2022-08-10T00:14:48.269Z,1.50
2022-08-10T00:15:53.481Z,1.80
2022-08-10T00:16:48.253Z,1.60
2022-08-10T00:17:48.254Z,1.50
2022-08-10T00:18:48.226Z,1.60
2022-08-10T00:20:03.927Z,1.70
2022-08-10T00:20:48.217Z,1.80
2022-08-10T00:21:48.205Z,1.70
2022-08-10T00:22:48.899Z,1.50
2022-08-10T00:23:48.191Z,2.20
2022-08-10T00:24:48.169Z,1.80
2022-08-10T00:25:48.170Z,1.90
2022-08-10T00:27:51.872Z,1.90
2022-08-10T00:28:07.871Z,1.50
2022-08-10T00:28:48.131Z,1.90
2022-08-10T00:29:48.125Z,1.90
2022-08-10T00:30:54.107Z,1.80
2022-08-10T00:31:58.833Z,1.70
2022-08-10T00:32:48.109Z,2.00
2022-08-10T00:33:48.707Z,1.70
2022-08-10T00:34:48.069Z,2.30
2022-08-10T00:35:48.076Z,1.80
2022-08-10T00:36:48.048Z,2.30
2022-08-10T00:37:57.675Z,1.90
2022-08-10T00:38:48.036Z,1.50
2022-08-10T00:39:48.081Z,1.80
2022-08-10T00:40:48.013Z,2.00
2022-08-10T00:42:07.087Z,1.50
2022-08-10T00:42:48.020Z,2.00
2022-08-10T00:43:47.988Z,1.40
2022-08-10T00:44:47.976Z,1.80
2022-08-10T00:45:59.159Z,1.70
2022-08-10T00:46:47.978Z,2.30
2022-08-10T00:47:47.959Z,1.80
2022-08-10T00:48:53.439Z,1.80
2022-08-10T00:49:47.939Z,1.60
2022-08-10T00:50:47.913Z,1.70
2022-08-10T00:51:48.787Z,1.90
2022-08-10T00:52:47.896Z,1.80
2022-08-10T00:53:47.890Z,2.00
2022-08-10T00:54:47.874Z,1.70
2022-08-10T00:56:38.407Z,1.50
2022-08-10T00:57:21.726Z,1.80
2022-08-10T00:57:54.882Z,1.40
2022-08-10T00:58:47.864Z,1.70
2022-08-10T00:59:58.668Z,1.60
2022-08-10T01:00:47.821Z,1.50
2022-08-10T01:02:10.532Z,1.60
2022-08-10T01:02:47.889Z,1.50
2022-08-10T01:04:57.380Z,1.80
2022-08-10T01:05:05.071Z,1.50
2022-08-10T01:05:51.663Z,1.30
2022-08-10T01:06:47.778Z,2.10
2022-08-10T01:07:47.753Z,2.10
2022-08-10T01:08:47.747Z,1.90
2022-08-10T01:09:55.695Z,1.70
2022-08-10T01:10:47.739Z,1.80
2022-08-10T01:12:38.333Z,1.70
2022-08-10T01:12:47.772Z,1.70
2022-08-10T01:13:47.701Z,1.50
2022-08-10T01:14:47.678Z,1.60
2022-08-10T01:15:47.676Z,1.80
2022-08-10T01:16:47.685Z,1.70
2022-08-10T01:17:50.815Z,1.40
2022-08-10T01:18:47.643Z,1.40
2022-08-10T01:19:47.639Z,1.50
2022-08-10T01:20:47.652Z,1.40
2022-08-10T01:21:54.228Z,1.90
2022-08-10T01:22:47.615Z,1.80
2022-08-10T01:23:47.601Z,2.00
2022-08-10T01:24:47.588Z,1.40
2022-08-10T01:26:12.212Z,1.60
2022-08-10T01:26:47.590Z,1.80
2022-08-10T01:27:47.563Z,1.90
2022-08-10T01:28:47.550Z,1.70
2022-08-10T01:29:47.553Z,1.70
2022-08-10T01:30:47.529Z,1.60
2022-08-10T01:31:47.628Z,1.80
2022-08-10T01:32:47.516Z,1.40
2022-08-10T01:33:59.178Z,1.70
2022-08-10T01:34:47.489Z,1.90
2022-08-10T01:35:47.481Z,1.70
2022-08-10T01:36:47.467Z,2.10
2022-08-10T01:37:52.004Z,1.90
2022-08-10T01:38:47.451Z,1.80
2022-08-10T01:39:47.548Z,1.40
2022-08-10T01:40:47.433Z,1.70
2022-08-10T01:41:47.419Z,1.80
2022-08-10T01:42:47.423Z,1.50
2022-08-10T01:43:47.413Z,1.90
2022-08-10T01:44:47.384Z,1.50
2022-08-10T01:45:47.384Z,2.00
2022-08-10T01:46:47.382Z,1.50
2022-08-10T01:47:47.378Z,2.20
2022-08-10T01:48:47.346Z,2.10
2022-08-10T01:49:47.351Z,1.90
2022-08-10T01:50:59.783Z,1.60
2022-08-10T01:51:47.329Z,1.90
2022-08-10T01:52:47.325Z,1.80
2022-08-10T01:53:47.314Z,2.20
2022-08-10T01:54:47.289Z,1.90
2022-08-10T01:55:47.286Z,3.20
2022-08-10T01:56:47.279Z,1.80
2022-08-10T01:57:47.280Z,1.60
2022-08-10T01:58:47.250Z,1.60
2022-08-10T02:00:00.539Z,2.20
2022-08-10T02:00:47.258Z,1.70
2022-08-10T02:01:47.251Z,1.80
2022-08-10T02:02:47.225Z,1.90
2022-08-10T02:04:01.587Z,1.70
2022-08-10T02:04:47.204Z,1.60
2022-08-10T02:05:47.187Z,1.50
2022-08-10T02:06:47.175Z,1.80
2022-08-10T02:07:47.183Z,1.80
2022-08-10T02:08:47.160Z,1.90
2022-08-10T02:09:47.151Z,1.90
2022-08-10T02:10:47.134Z,2.00
2022-08-10T02:12:05.403Z,1.90
2022-08-10T02:12:47.142Z,1.60
2022-08-10T02:13:47.109Z,1.90
2022-08-10T02:14:47.114Z,1.80
2022-08-10T02:16:02.116Z,2.10
2022-08-10T02:16:47.082Z,1.60
2022-08-10T02:17:57.469Z,2.10
2022-08-10T02:18:47.076Z,1.70
2022-08-10T02:19:47.058Z,1.70
2022-08-10T02:20:47.037Z,2.40
2022-08-10T02:22:35.254Z,1.70
2022-08-10T02:22:47.594Z,1.70
2022-08-10T02:23:56.881Z,2.00
2022-08-10T02:24:47.006Z,2.20
2022-08-10T02:25:46.992Z,1.70
2022-08-10T02:26:46.988Z,1.70
2022-08-10T02:27:46.988Z,2.00
2022-08-10T02:28:46.959Z,2.00
2022-08-10T02:29:48.952Z,1.80
2022-08-10T02:30:46.952Z,1.50
2022-08-10T02:31:46.945Z,1.80
2022-08-10T02:32:52.981Z,1.80
2022-08-10T02:33:57.587Z,3.00
2022-08-10T02:34:46.913Z,2.10
2022-08-10T02:35:55.002Z,2.00
2022-08-10T02:36:46.889Z,2.00
2022-08-10T02:37:46.901Z,2.30
2022-08-10T02:38:58.179Z,1.90
2022-08-10T02:39:46.892Z,1.90
2022-08-10T02:42:18.793Z,2.10
2022-08-10T02:45:31.783Z,2.10
2022-08-10T02:45:36.965Z,2.00
2022-08-10T02:46:36.617Z,2.10
2022-08-10T02:47:51.159Z,2.10
2022-08-10T02:48:36.615Z,1.80
2022-08-10T02:49:36.584Z,2.10
2022-08-10T02:50:36.579Z,1.70
2022-08-10T02:52:06.380Z,2.10
2022-08-10T02:52:36.822Z,2.00
2022-08-10T02:53:55.317Z,1.70
2022-08-10T02:54:36.549Z,1.80
2022-08-10T02:55:36.526Z,1.90
2022-08-10T02:56:36.519Z,2.00
2022-08-10T02:57:36.501Z,2.20
2022-08-10T02:58:36.524Z,1.80
2022-08-10T02:59:40.182Z,1.90
2022-08-10T03:00:36.475Z,2.20
2022-08-10T03:01:36.550Z,1.70
2022-08-10T03:02:36.761Z,1.80
2022-08-10T03:03:36.460Z,2.00
2022-08-10T03:04:56.251Z,2.10
2022-08-10T03:05:36.437Z,2.00
2022-08-10T03:06:36.418Z,1.90
2022-08-10T03:07:44.275Z,2.20
2022-08-10T03:08:36.435Z,1.70
2022-08-10T03:09:36.385Z,2.10
2022-08-10T03:10:39.104Z,2.20
2022-08-10T03:12:35.711Z,2.30
2022-08-10T03:12:43.055Z,2.10
2022-08-10T03:13:36.379Z,2.00
2022-08-10T03:14:36.338Z,1.90
2022-08-10T03:15:36.334Z,2.20
2022-08-10T03:16:36.321Z,2.10
2022-08-10T03:17:36.310Z,1.80
2022-08-10T03:18:36.321Z,2.00
2022-08-10T03:20:35.613Z,2.20
2022-08-10T03:20:43.023Z,2.20
2022-08-10T03:21:36.273Z,2.20
2022-08-10T03:22:36.380Z,2.10
2022-08-10T03:23:36.266Z,2.10
2022-08-10T03:24:36.245Z,2.40
2022-08-10T03:25:36.231Z,2.00
2022-08-10T03:26:36.222Z,2.60
2022-08-10T03:27:36.208Z,2.00
2022-08-10T03:28:36.228Z,2.10
2022-08-10T03:30:28.119Z,1.90
2022-08-10T03:30:38.211Z,2.00
2022-08-10T03:31:36.170Z,2.10
2022-08-10T03:32:36.378Z,2.20
2022-08-10T03:33:36.162Z,2.10
2022-08-10T03:34:36.148Z,2.20
2022-08-10T03:35:36.130Z,2.00
2022-08-10T03:36:43.890Z,2.40
2022-08-10T03:37:36.120Z,2.70
2022-08-10T03:38:36.120Z,2.10
2022-08-10T03:39:36.150Z,2.30
2022-08-10T03:40:46.300Z,2.30
2022-08-10T03:41:36.088Z,2.30
2022-08-10T03:42:36.220Z,2.00
2022-08-10T03:43:36.071Z,2.40
2022-08-10T03:44:36.053Z,2.60
2022-08-10T03:45:41.762Z,2.40
2022-08-10T03:46:36.029Z,2.00
2022-08-10T03:47:36.029Z,2.40
2022-08-10T03:48:49.118Z,2.00
2022-08-10T03:49:36.030Z,2.10
2022-08-10T03:50:51.149Z,2.40
2022-08-10T03:51:35.997Z,2.10
2022-08-10T03:52:36.155Z,2.10
2022-08-10T03:54:03.206Z,2.30
2022-08-10T03:54:35.951Z,2.10
2022-08-10T03:56:29.020Z,2.60
2022-08-10T03:56:35.940Z,2.10
2022-08-10T03:57:35.920Z,2.10
2022-08-10T03:58:35.931Z,2.10
2022-08-10T03:59:35.902Z,2.10
2022-08-10T04:00:35.921Z,2.30
2022-08-10T04:02:45.981Z,2.30
2022-08-10T04:02:53.179Z,2.10
2022-08-10T04:03:35.882Z,2.10
2022-08-10T04:04:35.856Z,2.20
2022-08-10T04:05:38.582Z,2.70
2022-08-10T04:06:35.828Z,2.20
2022-08-10T04:07:35.830Z,2.60
2022-08-10T04:08:35.828Z,2.80
2022-08-10T04:09:42.746Z,2.30
2022-08-10T04:10:35.803Z,1.80
2022-08-10T04:11:35.781Z,2.40
2022-08-10T04:12:35.898Z,2.10
2022-08-10T04:13:35.766Z,2.30
2022-08-10T04:14:49.235Z,2.00
2022-08-10T04:15:35.750Z,2.50
2022-08-10T04:16:35.731Z,2.50
2022-08-10T04:18:01.415Z,2.40
2022-08-10T04:18:35.722Z,2.40
2022-08-10T04:19:35.724Z,2.50
2022-08-10T04:20:35.690Z,2.60
2022-08-10T04:21:35.689Z,2.40
2022-08-10T04:22:35.841Z,2.10
2022-08-10T04:23:35.668Z,2.20
2022-08-10T04:24:35.669Z,2.00
2022-08-10T04:25:35.648Z,1.90
2022-08-10T04:26:35.638Z,2.70
2022-08-10T04:27:35.634Z,2.50
2022-08-10T04:28:35.614Z,2.40
2022-08-10T04:29:35.620Z,2.20
2022-08-10T04:30:35.593Z,2.00
2022-08-10T04:31:35.589Z,2.50
2022-08-10T04:32:35.756Z,2.40
2022-08-10T04:33:35.568Z,2.50
2022-08-10T04:34:35.578Z,2.40
2022-08-10T04:35:35.549Z,2.40
2022-08-10T04:36:35.533Z,2.20
2022-08-10T04:37:35.528Z,2.40
2022-08-10T04:38:35.516Z,2.30
2022-08-10T04:39:35.620Z,2.40
2022-08-10T04:40:35.497Z,2.10
2022-08-10T04:41:35.492Z,2.00
2022-08-10T04:42:35.669Z,2.20
2022-08-10T04:43:35.473Z,2.50
2022-08-10T04:44:35.472Z,2.30
2022-08-10T04:45:48.293Z,2.40
2022-08-10T04:46:56.535Z,2.00
2022-08-10T04:47:57.315Z,2.30
2022-08-10T04:48:40.935Z,2.30
2022-08-10T04:49:54.028Z,2.20
2022-08-10T04:50:35.407Z,1.90
2022-08-10T04:51:35.392Z,2.70
2022-08-10T04:52:35.527Z,2.40
2022-08-10T04:54:04.135Z,2.30
2022-08-10T04:54:35.385Z,2.00
2022-08-10T04:55:35.359Z,2.10
2022-08-10T04:56:35.345Z,2.60
2022-08-10T04:57:35.338Z,2.30
2022-08-10T04:58:35.321Z,2.50
2022-08-10T04:59:35.313Z,2.10
2022-08-10T05:00:35.360Z,2.30
2022-08-10T05:02:22.664Z,2.60
2022-08-10T05:02:35.375Z,2.20
2022-08-10T05:03:35.282Z,2.30
2022-08-10T05:04:42.137Z,2.50
2022-08-10T05:05:35.260Z,2.30
2022-08-10T05:06:35.240Z,2.50
2022-08-10T05:07:50.363Z,2.50
2022-08-10T05:08:35.228Z,2.30
2022-08-10T05:10:00.490Z,2.40
2022-08-10T05:10:35.224Z,2.70
2022-08-10T05:11:35.203Z,2.70
2022-08-10T05:12:36.341Z,2.40
2022-08-10T05:13:35.180Z,2.80
2022-08-10T05:14:35.170Z,2.70
2022-08-10T05:15:35.181Z,2.50
2022-08-10T05:16:35.146Z,2.30
2022-08-10T05:17:35.139Z,2.60
2022-08-10T05:18:35.126Z,2.60
2022-08-10T05:20:01.687Z,2.70
2022-08-10T05:20:35.128Z,2.60
2022-08-10T05:22:03.207Z,2.80
2022-08-10T05:22:35.502Z,2.40
2022-08-10T05:23:35.080Z,2.40
2022-08-10T05:24:35.072Z,2.90
2022-08-10T05:25:38.097Z,2.80
2022-08-10T05:26:38.013Z,2.60
2022-08-10T05:27:35.051Z,2.80
2022-08-10T05:28:35.294Z,2.60
2022-08-10T05:29:35.026Z,2.90
2022-08-10T05:30:35.029Z,2.80
2022-08-10T05:31:35.010Z,2.60
2022-08-10T05:32:56.141Z,2.50
2022-08-10T05:33:34.992Z,2.90
2022-08-10T05:34:34.972Z,3.00
2022-08-10T05:35:51.931Z,2.80
2022-08-10T05:36:34.960Z,2.50
2022-08-10T05:38:09.148Z,2.70
2022-08-10T05:38:34.949Z,2.60
2022-08-10T05:39:34.971Z,2.80
2022-08-10T05:40:34.928Z,2.80
2022-08-10T05:41:34.908Z,2.60
2022-08-10T05:42:35.170Z,2.50
2022-08-10T05:43:34.887Z,2.50
2022-08-10T05:44:34.874Z,2.50
2022-08-10T05:45:34.880Z,2.60
2022-08-10T05:46:34.862Z,2.30
2022-08-10T05:48:58.148Z,2.60
2022-08-10T05:49:04.867Z,2.40
2022-08-10T05:49:34.839Z,2.30
2022-08-10T05:50:34.834Z,2.40
2022-08-10T05:51:34.809Z,2.50
2022-08-10T05:52:34.971Z,2.40
2022-08-10T05:54:01.258Z,2.40
2022-08-10T05:54:34.783Z,2.50
2022-08-10T05:55:34.791Z,2.40
2022-08-10T05:56:54.327Z,2.20
2022-08-10T05:57:34.759Z,2.20
2022-08-10T05:58:34.748Z,2.40
2022-08-10T06:00:35.699Z,2.20
2022-08-10T06:00:49.833Z,2.30
2022-08-10T06:01:34.784Z,2.40
2022-08-10T06:02:35.878Z,2.30
2022-08-10T06:03:34.690Z,2.40
2022-08-10T06:04:34.686Z,2.30
2022-08-10T06:05:34.689Z,2.30
2022-08-10T06:06:34.660Z,2.50
2022-08-10T06:07:34.924Z,2.20
2022-08-10T06:08:34.646Z,2.20
2022-08-10T06:09:34.636Z,2.40
2022-08-10T06:10:35.650Z,2.40
2022-08-10T06:12:28.683Z,2.80
2022-08-10T06:12:54.183Z,2.30
2022-08-10T06:13:57.936Z,2.50
2022-08-10T06:14:34.589Z,2.50
2022-08-10T06:15:52.194Z,2.40
2022-08-10T06:16:34.888Z,2.50
2022-08-10T06:17:34.559Z,2.20
2022-08-10T06:18:34.549Z,2.20
2022-08-10T06:19:34.540Z,2.20
2022-08-10T06:20:36.181Z,2.20
2022-08-10T06:21:34.525Z,2.60
2022-08-10T06:22:34.514Z,2.10
2022-08-10T06:23:34.512Z,2.40
2022-08-10T06:24:34.502Z,2.60
2022-08-10T06:26:34.472Z,2.20
2022-08-10T06:27:34.928Z,2.30
2022-08-10T06:28:34.450Z,2.50
2022-08-10T06:29:34.447Z,2.50
2022-08-10T06:30:34.456Z,2.10
2022-08-10T06:31:48.718Z,2.40
2022-08-10T06:32:34.519Z,2.30
2022-08-10T06:33:35.009Z,2.40
2022-08-10T06:34:34.392Z,2.10
2022-08-10T06:35:34.391Z,2.20
2022-08-10T06:36:34.387Z,2.20
2022-08-10T06:37:34.371Z,2.40
2022-08-10T06:38:34.357Z,2.20
2022-08-10T06:39:35.634Z,2.30
2022-08-10T06:40:34.341Z,2.00
2022-08-10T06:41:57.870Z,2.40
2022-08-10T06:42:34.519Z,2.20
2022-08-10T06:43:34.311Z,2.00
2022-08-10T06:44:34.296Z,2.30
2022-08-10T06:45:34.659Z,2.10
2022-08-10T06:46:34.297Z,2.20
2022-08-10T06:47:34.271Z,2.40
2022-08-10T06:48:34.259Z,2.20
2022-08-10T06:49:34.256Z,2.40
2022-08-10T06:50:45.449Z,2.10
2022-08-10T06:51:34.261Z,2.00
2022-08-10T06:52:34.278Z,2.20
2022-08-10T06:53:52.004Z,2.00
2022-08-10T06:54:34.210Z,2.10
2022-08-10T06:55:49.848Z,2.40
2022-08-10T06:56:36.480Z,2.10
2022-08-10T06:57:34.180Z,2.30
2022-08-10T06:58:34.163Z,2.30
2022-08-10T06:59:34.156Z,2.30
2022-08-10T07:00:34.777Z,2.30
2022-08-10T07:01:34.253Z,2.00
2022-08-10T07:02:34.205Z,2.10
2022-08-10T07:03:34.119Z,2.10
2022-08-10T07:04:34.112Z,2.30
2022-08-10T07:05:34.098Z,2.40
2022-08-10T07:06:34.099Z,2.00
2022-08-10T07:07:34.084Z,2.10
2022-08-10T07:08:34.065Z,2.20
2022-08-10T07:09:34.062Z,2.10
2022-08-10T07:10:41.174Z,2.20
2022-08-10T07:11:34.063Z,2.20
2022-08-10T07:12:34.315Z,2.10
2022-08-10T07:14:15.767Z,1.80
2022-08-10T07:14:34.011Z,2.30
2022-08-10T07:15:58.084Z,2.00
2022-08-10T07:16:33.990Z,2.00
2022-08-10T07:17:39.124Z,1.90
2022-08-10T07:18:33.971Z,2.20
2022-08-10T07:19:33.959Z,2.00
2022-08-10T07:20:33.965Z,2.00
2022-08-10T07:21:33.940Z,2.00
2022-08-10T07:23:01.504Z,2.00
2022-08-10T07:24:01.351Z,2.10
2022-08-10T07:24:33.910Z,2.10
2022-08-10T07:25:33.911Z,2.20
2022-08-10T07:26:33.881Z,2.20
2022-08-10T07:27:58.372Z,1.90
2022-08-10T07:28:33.871Z,1.80
2022-08-10T07:29:54.337Z,2.00
2022-08-10T07:30:33.863Z,1.90
2022-08-10T07:31:56.510Z,1.80
2022-08-10T07:32:33.853Z,2.20
2022-08-10T07:33:33.821Z,1.90
2022-08-10T07:34:33.885Z,1.80
2022-08-10T07:35:43.078Z,2.00
2022-08-10T07:36:33.793Z,2.10
2022-08-10T07:37:33.780Z,2.00
2022-08-10T07:38:33.768Z,2.00
2022-08-10T07:40:02.852Z,2.00
2022-08-10T07:40:33.956Z,2.20
2022-08-10T07:41:33.741Z,2.10
2022-08-10T07:42:33.736Z,2.10
2022-08-10T07:43:33.722Z,2.00
2022-08-10T07:44:33.707Z,2.20
2022-08-10T07:45:33.717Z,2.10
2022-08-10T07:46:33.694Z,2.00
2022-08-10T07:47:54.074Z,1.90
2022-08-10T07:48:33.674Z,1.80
2022-08-10T07:49:33.666Z,2.00
2022-08-10T07:50:36.029Z,1.70
2022-08-10T07:51:33.650Z,2.30
2022-08-10T07:52:33.634Z,2.00
2022-08-10T07:53:33.618Z,1.80
2022-08-10T07:54:33.613Z,2.00
2022-08-10T07:56:05.593Z,1.80
2022-08-10T07:56:48.329Z,1.90
2022-08-10T07:57:38.200Z,1.90
2022-08-10T07:58:33.586Z,2.10
2022-08-10T07:59:33.564Z,2.10
2022-08-10T08:00:33.571Z,1.70
2022-08-10T08:01:33.643Z,2.40
2022-08-10T08:02:35.850Z,2.00
2022-08-10T08:03:33.524Z,1.80
2022-08-10T08:04:33.523Z,2.00
2022-08-10T08:05:57.632Z,1.90
2022-08-10T08:06:33.511Z,1.80
2022-08-10T08:07:33.545Z,1.70
2022-08-10T08:08:33.722Z,2.10
2022-08-10T08:09:33.471Z,2.10
2022-08-10T08:10:33.479Z,1.70
2022-08-10T08:11:33.533Z,2.10
2022-08-10T08:12:36.784Z,1.80
2022-08-10T08:13:33.452Z,2.00
2022-08-10T08:14:33.424Z,1.80
2022-08-10T08:16:19.202Z,2.20
2022-08-10T08:16:33.437Z,1.70
2022-08-10T08:17:36.392Z,2.10
2022-08-10T08:18:33.383Z,1.80
2022-08-10T08:19:37.373Z,2.00
2022-08-10T08:20:33.387Z,2.00
2022-08-10T08:24:14.653Z,1.90
2022-08-10T08:24:36.353Z,1.90
2022-08-10T08:24:41.724Z,1.90
2022-08-10T08:25:41.329Z,1.70
2022-08-10T08:26:41.310Z,1.90
2022-08-10T08:27:41.316Z,2.00
2022-08-10T08:28:41.311Z,2.00
2022-08-10T08:29:41.298Z,1.70
2022-08-10T08:30:43.544Z,1.90
2022-08-10T08:31:54.240Z,2.00
2022-08-10T08:32:41.258Z,2.10
2022-08-10T08:33:42.897Z,1.90
2022-08-10T08:34:41.225Z,1.90
2022-08-10T08:35:41.240Z,1.80
2022-08-10T08:36:41.207Z,1.90
2022-08-10T08:38:31.759Z,1.90
2022-08-10T08:38:41.211Z,1.80
2022-08-10T08:39:41.254Z,2.00
2022-08-10T08:40:41.205Z,1.90
2022-08-10T08:41:41.164Z,1.80
2022-08-10T08:42:41.151Z,1.90
2022-08-10T08:43:41.147Z,1.90
2022-08-10T08:44:41.154Z,1.80
2022-08-10T08:45:49.154Z,2.30
2022-08-10T08:46:41.141Z,2.00
2022-08-10T08:48:04.167Z,2.00
2022-08-10T08:48:41.099Z,1.80
2022-08-10T08:50:05.005Z,1.90
2022-08-10T08:50:41.093Z,1.80
2022-08-10T08:52:09.357Z,1.80
2022-08-10T08:52:41.071Z,1.90
2022-08-10T08:54:02.401Z,2.00
2022-08-10T08:54:41.042Z,2.00
2022-08-10T08:55:55.132Z,1.90
2022-08-10T08:56:41.021Z,2.00
2022-08-10T08:57:50.746Z,1.90
2022-08-10T08:58:41.003Z,1.90
2022-08-10T08:59:40.996Z,1.50
2022-08-10T09:00:41.002Z,1.60
2022-08-10T09:01:41.629Z,1.70
2022-08-10T09:02:40.960Z,2.00
2022-08-10T09:03:40.953Z,1.50
2022-08-10T09:04:40.958Z,1.50
2022-08-10T09:05:59.656Z,1.90
2022-08-10T09:06:40.978Z,1.80
2022-08-10T09:08:02.320Z,1.40
2022-08-10T09:08:40.909Z,1.70
2022-08-10T09:09:40.896Z,1.90
2022-08-10T09:10:40.891Z,1.80
2022-08-10T09:11:40.892Z,1.60
2022-08-10T09:12:40.862Z,1.50
2022-08-10T09:13:40.868Z,1.60
2022-08-10T09:14:40.843Z,1.80
2022-08-10T09:15:41.568Z,2.00
2022-08-10T09:16:40.840Z,1.90
2022-08-10T09:17:40.818Z,1.50
2022-08-10T09:18:40.808Z,1.60
2022-08-10T09:19:40.798Z,1.80
2022-08-10T09:20:40.788Z,1.90
2022-08-10T09:21:43.057Z,1.70
2022-08-10T09:22:40.767Z,1.50
2022-08-10T09:24:04.704Z,1.70
2022-08-10T09:24:40.756Z,1.80
2022-08-10T09:25:40.742Z,1.40
2022-08-10T09:26:40.739Z,1.80
2022-08-10T09:27:40.725Z,1.70
2022-08-10T09:28:40.713Z,1.70
2022-08-10T09:29:40.701Z,1.60
2022-08-10T09:30:48.293Z,1.80
2022-08-10T09:31:40.687Z,1.80
2022-08-10T09:36:14.734Z,1.40
2022-08-10T09:36:33.674Z,1.60
2022-08-10T09:36:38.746Z,1.60
2022-08-10T09:37:42.636Z,1.60
2022-08-10T09:38:38.493Z,1.30
2022-08-10T09:40:56.849Z,1.50
2022-08-10T09:41:07.495Z,1.10
2022-08-10T09:41:38.516Z,1.40
2022-08-10T09:42:38.446Z,1.10
2022-08-10T09:43:38.544Z,1.10
2022-08-10T09:44:57.503Z,1.10
2022-08-10T09:45:38.443Z,1.20
2022-08-10T09:46:38.409Z,1.20
2022-08-10T09:47:58.698Z,1.10
2022-08-10T09:48:38.391Z,1.10
2022-08-10T09:49:54.301Z,1.20
2022-08-10T09:51:21.007Z,1.40
2022-08-10T09:51:47.200Z,1.10
2022-08-10T09:52:38.533Z,1.20
2022-08-10T09:53:38.348Z,0.90
2022-08-10T09:54:38.326Z,1.20
2022-08-10T09:56:17.382Z,1.40
2022-08-10T09:56:38.309Z,1.20
2022-08-10T09:57:43.919Z,1.10
2022-08-10T09:58:38.296Z,1.30
2022-08-10T10:00:01.600Z,1.10
2022-08-10T10:00:38.327Z,1.20
2022-08-10T10:02:02.836Z,1.20
2022-08-10T10:02:38.255Z,1.40
2022-08-10T10:03:38.290Z,1.10
2022-08-10T10:04:38.227Z,1.10
2022-08-10T10:05:38.244Z,1.10
2022-08-10T10:06:38.211Z,1.20
2022-08-10T10:07:38.373Z,1.40
2022-08-10T10:08:42.812Z,0.90
2022-08-10T10:09:38.182Z,1.20
2022-08-10T10:10:47.545Z,1.20
2022-08-10T10:11:38.169Z,1.00
2022-08-10T10:12:38.153Z,1.40
2022-08-10T10:13:52.900Z,1.20
2022-08-10T10:14:38.137Z,1.00
2022-08-10T10:15:38.143Z,1.00
2022-08-10T10:16:38.112Z,1.00
2022-08-10T10:17:38.310Z,1.50
2022-08-10T10:18:38.113Z,1.10
2022-08-10T10:19:40.774Z,1.20
2022-08-10T10:20:38.099Z,1.30
2022-08-10T10:21:53.948Z,1.40
2022-08-10T10:22:38.056Z,1.10
2022-08-10T10:23:38.047Z,1.20
2022-08-10T10:24:38.034Z,1.10
2022-08-10T10:25:49.982Z,1.50
2022-08-10T10:26:38.019Z,1.10
2022-08-10T10:27:38.366Z,1.30
2022-08-10T10:29:19.769Z,1.10
2022-08-10T10:29:56.466Z,1.10
2022-08-10T10:30:37.993Z,1.40
2022-08-10T10:31:37.971Z,1.40
2022-08-10T10:32:37.960Z,1.50
2022-08-10T10:33:37.952Z,1.30
2022-08-10T10:34:37.935Z,1.30
2022-08-10T10:35:37.945Z,1.70
2022-08-10T10:36:37.916Z,1.10
2022-08-10T10:38:02.584Z,1.30
2022-08-10T10:38:37.904Z,1.40
2022-08-10T10:39:37.962Z,1.40
2022-08-10T10:40:37.895Z,1.30
2022-08-10T10:41:56.170Z,1.40
2022-08-10T10:42:45.857Z,1.60
2022-08-10T10:43:37.858Z,1.30
2022-08-10T10:44:41.996Z,1.60
2022-08-10T10:45:42.017Z,1.20
2022-08-10T10:46:37.829Z,1.60
2022-08-10T10:47:38.023Z,1.40
2022-08-10T10:48:37.801Z,1.80
2022-08-10T10:49:37.800Z,1.60
2022-08-10T10:50:37.796Z,1.40
2022-08-10T10:51:37.800Z,1.60
2022-08-10T10:52:37.784Z,1.40
2022-08-10T10:53:37.767Z,1.90
2022-08-10T10:54:37.744Z,1.30
2022-08-10T10:56:13.560Z,1.50
2022-08-10T10:56:37.728Z,1.70
2022-08-10T10:58:00.433Z,1.40
2022-08-10T10:58:37.710Z,1.50
2022-08-10T10:59:55.986Z,1.50
2022-08-10T11:00:37.703Z,1.20
2022-08-10T11:01:37.730Z,1.40
2022-08-10T11:02:37.675Z,1.50
2022-08-10T11:03:37.658Z,1.30
2022-08-10T11:04:37.644Z,1.70
2022-08-10T11:05:37.649Z,1.60
2022-08-10T11:06:40.620Z,1.50
2022-08-10T11:07:37.623Z,1.20
2022-08-10T11:08:37.602Z,1.70
2022-08-10T11:10:09.005Z,1.30
2022-08-10T11:10:46.551Z,1.20
2022-08-10T11:12:01.409Z,1.50
2022-08-10T11:12:37.569Z,1.50
2022-08-10T11:14:24.341Z,1.40
2022-08-10T11:14:37.552Z,1.50
2022-08-10T11:15:42.898Z,1.30
2022-08-10T11:16:37.537Z,1.50
2022-08-10T11:17:37.783Z,1.70
2022-08-10T11:18:37.504Z,1.50
2022-08-10T11:20:02.089Z,1.10
2022-08-10T11:20:37.517Z,1.80
2022-08-10T11:21:37.483Z,1.30
2022-08-10T11:22:37.463Z,1.60
2022-08-10T11:23:37.463Z,1.60
2022-08-10T11:24:48.366Z,1.30
2022-08-10T11:25:37.475Z,1.40
2022-08-10T11:26:37.443Z,1.50
2022-08-10T11:27:37.656Z,1.70
2022-08-10T11:28:37.405Z,1.40
2022-08-10T11:29:37.428Z,1.40
2022-08-10T11:30:37.435Z,1.30
2022-08-10T11:31:37.384Z,1.70
2022-08-10T11:32:37.363Z,1.50
2022-08-10T11:34:03.980Z,1.30
2022-08-10T11:35:11.221Z,1.20
2022-08-10T11:35:37.365Z,1.40
2022-08-10T11:36:37.335Z,1.30
2022-08-10T11:38:33.031Z,1.60
2022-08-10T11:38:58.002Z,1.40
2022-08-10T11:39:37.416Z,1.60
2022-08-10T11:40:37.409Z,1.40
2022-08-10T11:42:07.950Z,1.20
2022-08-10T11:42:37.275Z,1.40
2022-08-10T11:43:37.271Z,1.50
2022-08-10T11:44:37.256Z,1.60
2022-08-10T11:45:37.265Z,1.10
2022-08-10T11:46:37.238Z,1.40
2022-08-10T11:47:37.235Z,1.70
2022-08-10T11:48:53.853Z,1.60
2022-08-10T11:49:37.214Z,1.60
2022-08-10T11:50:37.238Z,1.50
2022-08-10T11:51:37.208Z,1.60
2022-08-10T11:52:37.299Z,1.20
2022-08-10T11:53:39.341Z,1.40
2022-08-10T11:54:37.171Z,1.40
2022-08-10T11:55:37.149Z,1.50
2022-08-10T11:56:37.155Z,1.60
2022-08-10T11:57:54.197Z,1.30
2022-08-10T11:58:37.126Z,1.40
2022-08-10T11:59:37.111Z,1.00
2022-08-10T12:00:37.131Z,1.60
2022-08-10T12:01:37.116Z,1.30
2022-08-10T12:02:37.453Z,1.40
2022-08-10T12:03:37.090Z,1.50
2022-08-10T12:04:37.065Z,1.50
2022-08-10T12:05:54.299Z,1.50
2022-08-10T12:06:54.690Z,1.60
2022-08-10T12:10:07.220Z,1.40
2022-08-10T12:10:16.490Z,1.20
2022-08-10T12:10:21.027Z,1.30
2022-08-10T12:11:24.067Z,1.20
2022-08-10T12:12:20.994Z,1.50
2022-08-10T12:13:21.009Z,1.60
2022-08-10T12:14:22.479Z,1.30
2022-08-10T12:15:21.013Z,1.30
2022-08-10T12:16:20.952Z,1.30
2022-08-10T12:17:20.947Z,1.60
2022-08-10T12:18:20.949Z,1.00
2022-08-10T12:19:20.954Z,1.20
2022-08-10T12:20:20.921Z,1.40
2022-08-10T12:21:21.671Z,1.50
2022-08-10T12:22:20.896Z,1.40
2022-08-10T12:23:20.893Z,1.30
2022-08-10T12:24:20.874Z,1.40
2022-08-10T12:25:56.205Z,1.40
2022-08-10T12:26:20.893Z,1.40
2022-08-10T12:27:20.860Z,1.40
2022-08-10T12:28:20.838Z,1.50
2022-08-10T12:29:25.171Z,1.70
2022-08-10T12:30:20.813Z,1.30
2022-08-10T12:31:20.828Z,1.40
2022-08-10T12:32:26.835Z,1.30
2022-08-10T12:33:20.788Z,1.40
2022-08-10T12:34:20.776Z,1.50
2022-08-10T12:35:21.983Z,1.40
2022-08-10T12:36:20.966Z,0.90
2022-08-10T12:37:20.753Z,1.10
2022-08-10T12:38:20.739Z,1.20
2022-08-10T12:39:20.882Z,1.10
2022-08-10T12:40:37.164Z,1.60
2022-08-10T12:41:43.798Z,1.00
2022-08-10T12:42:39.054Z,1.30
2022-08-10T12:44:07.965Z,1.50
2022-08-10T12:44:20.686Z,1.30
2022-08-10T12:45:21.148Z,1.10
2022-08-10T12:46:20.685Z,1.30
2022-08-10T12:47:20.663Z,1.30
2022-08-10T12:48:20.636Z,1.20
2022-08-10T12:49:20.645Z,1.40
2022-08-10T12:50:30.533Z,1.20
2022-08-10T12:51:20.632Z,1.10
2022-08-10T12:52:20.637Z,1.20
2022-08-10T12:53:20.606Z,1.20
2022-08-10T12:54:31.869Z,1.40
2022-08-10T12:55:20.585Z,1.20
2022-08-10T12:56:20.610Z,1.60
2022-08-10T12:57:20.565Z,1.20
2022-08-10T12:58:59.134Z,1.70
2022-08-10T12:59:20.545Z,1.50
2022-08-10T13:00:20.528Z,1.40
2022-08-10T13:01:20.606Z,1.70
2022-08-10T13:02:20.576Z,1.50
2022-08-10T13:03:20.529Z,1.60
2022-08-10T13:04:28.399Z,1.80
2022-08-10T13:05:20.479Z,1.50
2022-08-10T13:06:20.498Z,1.40
2022-08-10T13:08:25.217Z,1.40
2022-08-10T13:08:31.933Z,1.40
2022-08-10T13:09:20.444Z,1.80
2022-08-10T13:10:20.429Z,1.40
2022-08-10T13:12:35.973Z,1.30
2022-08-10T13:12:44.084Z,1.50
2022-08-10T13:13:20.420Z,1.80
2022-08-10T13:14:24.051Z,1.50
2022-08-10T13:15:46.064Z,1.70
2022-08-10T13:16:20.389Z,1.40
2022-08-10T13:17:21.205Z,1.70
2022-08-10T13:18:20.353Z,1.50
2022-08-10T13:19:20.352Z,1.50
2022-08-10T13:20:20.332Z,1.40
2022-08-10T13:21:21.267Z,1.20
2022-08-10T13:22:20.315Z,1.20
2022-08-10T13:23:20.310Z,1.40
2022-08-10T13:24:20.332Z,1.50
2022-08-10T13:25:20.293Z,1.40
2022-08-10T13:26:20.287Z,1.50